Time;durP1;ratioP1;P1;durP2;ratioP2;P2;SDS_P1;SDS_P2;PMS_P1;PMS_P2;Temp;Humidity;BMP_temperature;BMP_pressure;BME280_temperature;BME280_humidity;BME280_pressure;Samples;Min_cycle;Max_cycle;Signal;HPM_P1;HPM_P2
2022/08/23 00:01:21;;;;;;;22.10;11.50;;;;;;;17.05;100.00;100055.16;105846;1273;23180;-65
2022/08/23 00:03:54;;;;;;;19.40;11.50;;;;;;;17.05;100.00;100057.04;105952;1273;25604;-65
2022/08/23 00:06:26;;;;;;;21.30;12.20;;;;;;;17.06;100.00;100057.09;105805;1273;24422;-65
2022/08/23 00:08:58;;;;;;;18.90;11.10;;;;;;;17.06;100.00;100052.79;105867;1273;22531;-65
2022/08/23 00:11:41;;;;;;;21.40;12.00;;;;;;;17.07;100.00;100051.89;106090;1273;23924;-65
2022/08/23 00:14:17;;;;;;;19.70;11.00;;;;;;;17.08;100.00;100051.84;105856;1273;22529;-64
2022/08/23 00:16:48;;;;;;;27.10;11.70;;;;;;;17.08;100.00;100049.99;105909;1273;22558;-65
2022/08/23 00:19:23;;;;;;;20.50;11.00;;;;;;;17.08;100.00;100052.92;105962;1273;22644;-64
2022/08/23 00:21:56;;;;;;;19.40;10.90;;;;;;;17.09;100.00;100049.27;105981;1273;25627;-66
2022/08/23 00:24:30;;;;;;;21.50;11.10;;;;;;;17.11;100.00;100052.43;105997;1273;25327;-65
2022/08/23 00:27:06;;;;;;;22.90;11.60;;;;;;;17.11;100.00;100049.95;105968;1273;24320;-65
2022/08/23 00:29:41;;;;;;;19.80;10.00;;;;;;;17.11;100.00;100052.11;106028;1273;22607;-65
2022/08/23 00:32:16;;;;;;;17.30;9.90;;;;;;;17.12;100.00;100043.17;105893;1273;23514;-65
2022/08/23 00:34:48;;;;;;;20.00;11.50;;;;;;;17.13;100.00;100037.34;105860;1273;25366;-64
2022/08/23 00:37:21;;;;;;;19.30;10.10;;;;;;;17.13;100.00;100034.86;105890;1273;25349;-63
2022/08/23 00:39:53;;;;;;;21.60;11.60;;;;;;;17.14;100.00;100029.88;105860;1273;22695;-63
2022/08/23 00:48:27;;;;;;;17.40;9.30;;;;;;;17.17;100.00;100028.62;105950;1273;24302;-63
2022/08/23 00:51:04;;;;;;;21.30;10.30;;;;;;;17.17;100.00;100028.56;105948;1273;22624;-64
2022/08/23 00:53:39;;;;;;;20.50;9.10;;;;;;;17.18;100.00;100027.02;105879;1273;25494;-63
2022/08/23 00:56:13;;;;;;;18.70;9.10;;;;;;;17.19;100.00;100030.60;105808;1273;24247;-62
2022/08/23 00:58:46;;;;;;;16.00;8.70;;;;;;;17.19;100.00;100026.54;105826;1273;22535;-63
2022/08/23 01:01:19;;;;;;;18.80;9.60;;;;;;;17.20;100.00;100025.39;105922;1273;24432;-63
2022/08/23 01:03:54;;;;;;;21.00;9.90;;;;;;;17.20;100.00;100025.08;105907;1273;22614;-64
2022/08/23 01:06:32;;;;;;;22.50;9.80;;;;;;;17.20;100.00;100018.98;105776;1273;22562;-64
2022/08/23 01:09:07;;;;;;;18.20;8.60;;;;;;;17.21;100.00;100013.59;105709;1273;25333;-64
2022/08/23 01:11:45;;;;;;;18.90;9.20;;;;;;;17.20;100.00;100019.86;105713;1273;25559;-63
2022/08/23 01:14:22;;;;;;;22.70;9.90;;;;;;;17.20;100.00;100025.08;105803;1273;22549;-64
2022/08/23 01:16:58;;;;;;;24.70;11.10;;;;;;;17.20;100.00;100024.67;105793;1273;22575;-64
2022/08/23 01:19:34;;;;;;;23.80;10.60;;;;;;;17.22;100.00;100028.95;106101;1273;24202;-65
2022/08/23 01:22:13;;;;;;;19.90;9.80;;;;;;;17.22;100.00;100031.78;105944;1273;22615;-64
2022/08/23 01:24:47;;;;;;;19.60;10.30;;;;;;;17.22;100.00;100058.20;105858;1273;22640;-64
2022/08/23 01:27:18;;;;;;;18.90;9.20;;;;;;;17.25;100.00;100072.59;105934;1273;22537;-64
2022/08/23 01:29:50;;;;;;;17.40;8.70;;;;;;;17.28;100.00;100082.24;105886;1273;25466;-65
2022/08/23 01:32:22;;;;;;;17.80;9.30;;;;;;;17.31;100.00;100089.52;105854;1273;24422;-65
2022/08/23 01:34:54;;;;;;;21.10;9.10;;;;;;;17.33;100.00;100092.35;105966;1273;22708;-63
2022/08/23 01:37:25;;;;;;;22.60;10.00;;;;;;;17.36;100.00;100089.39;105969;1273;22551;-63
2022/08/23 01:39:57;;;;;;;18.20;9.80;;;;;;;17.37;100.00;100086.72;106038;1273;22544;-61
2022/08/23 01:42:29;;;;;;;19.80;9.00;;;;;;;17.36;100.00;100079.23;106057;1273;24315;-61
2022/08/23 01:45:01;;;;;;;17.30;8.10;;;;;;;17.35;100.00;100082.98;106223;1273;26526;-62
2022/08/23 01:47:33;;;;;;;15.70;7.40;;;;;;;17.35;100.00;100074.92;106207;1273;22719;-58
2022/08/23 01:50:06;;;;;;;18.60;8.50;;;;;;;17.36;100.00;100076.98;106175;1273;25449;-65
2022/08/23 01:52:40;;;;;;;17.90;7.70;;;;;;;17.37;100.00;100080.20;105984;1273;25538;-62
2022/08/23 01:55:12;;;;;;;17.90;7.80;;;;;;;17.35;100.00;100072.98;106041;1273;25362;-60
2022/08/23 01:57:45;;;;;;;20.00;7.10;;;;;;;17.33;100.00;100060.34;106132;1273;22693;-61
2022/08/23 02:00:18;;;;;;;17.60;7.10;;;;;;;17.29;100.00;100057.20;106147;1273;22578;-62
2022/08/23 02:02:51;;;;;;;15.60;7.60;;;;;;;17.26;100.00;100069.04;106064;1273;22553;-61
2022/08/23 02:05:23;;;;;;;18.60;8.10;;;;;;;17.24;100.00;100075.41;105955;1273;22532;-64
2022/08/23 02:07:56;;;;;;;15.70;7.90;;;;;;;17.22;100.00;100079.48;105915;1273;24285;-62
2022/08/23 02:10:27;;;;;;;17.60;9.10;;;;;;;17.21;100.00;100081.44;106010;1273;22781;-64
2022/08/23 02:12:59;;;;;;;18.90;9.00;;;;;;;17.18;100.00;100090.05;105872;1273;24326;-66
2022/08/23 02:15:30;;;;;;;19.40;8.40;;;;;;;17.18;100.00;100093.27;105775;1273;25468;-66
2022/08/23 02:18:05;;;;;;;18.00;8.50;;;;;;;17.18;100.00;100096.05;105947;1273;22548;-66
2022/08/23 02:20:39;;;;;;;17.10;7.40;;;;;;;17.15;100.00;100100.90;105894;1273;22543;-65
2022/08/23 02:23:11;;;;;;;19.40;9.20;;;;;;;17.13;100.00;100105.29;105896;1273;22539;-66
2022/08/23 02:25:43;;;;;;;14.60;7.80;;;;;;;17.11;100.00;100098.84;105895;1273;22686;-61
2022/08/23 02:28:15;;;;;;;21.60;7.60;;;;;;;17.08;100.00;100097.84;105916;1273;24331;-63
2022/08/23 02:30:48;;;;;;;15.70;7.90;;;;;;;17.05;100.00;100091.86;105820;1273;22532;-64
2022/08/23 02:33:21;;;;;;;17.80;8.20;;;;;;;17.03;100.00;100094.14;105846;1273;22587;-65
2022/08/23 02:35:52;;;;;;;16.10;7.90;;;;;;;17.01;100.00;100096.92;105726;1273;22546;-64
2022/08/23 02:38:24;;;;;;;15.00;6.70;;;;;;;16.99;100.00;100089.09;106170;1273;24395;-62
2022/08/23 02:40:56;;;;;;;15.50;7.30;;;;;;;16.98;100.00;100083.16;105994;1273;25413;-65
2022/08/23 02:43:28;;;;;;;16.10;7.30;;;;;;;16.97;100.00;100086.15;105865;1273;22629;-66
2022/08/23 02:46:00;;;;;;;13.50;6.80;;;;;;;16.97;100.00;100089.11;105684;1273;25526;-67
2022/08/23 02:48:32;;;;;;;15.50;7.80;;;;;;;16.97;100.00;100090.10;105668;1273;22572;-67
2022/08/23 02:51:05;;;;;;;17.50;8.20;;;;;;;16.95;100.00;100091.40;105832;1273;25383;-66
2022/08/23 02:53:37;;;;;;;17.70;7.40;;;;;;;16.94;100.00;100091.98;105922;1273;26071;-66
2022/08/23 02:56:10;;;;;;;15.60;8.00;;;;;;;16.93;100.00;100085.16;106278;1261;22541;-56
2022/08/23 02:58:44;;;;;;;14.90;7.10;;;;;;;16.93;100.00;100090.95;105676;1273;24294;-57
2022/08/23 03:01:20;;;;;;;19.10;7.70;;;;;;;16.94;100.00;100086.39;105656;1273;23098;-58
2022/08/23 03:03:53;;;;;;;13.10;5.90;;;;;;;16.94;100.00;100086.27;105591;1272;22586;-55
2022/08/23 03:06:25;;;;;;;15.90;6.80;;;;;;;16.94;100.00;100088.38;105665;1273;22533;-53
2022/08/23 03:08:57;;;;;;;14.20;6.60;;;;;;;16.95;100.00;100090.06;105590;1273;25851;-55
2022/08/23 03:11:29;;;;;;;17.40;7.50;;;;;;;16.96;100.00;100091.70;105680;1273;22618;-54
2022/08/23 03:14:01;;;;;;;11.50;4.90;;;;;;;16.96;100.00;100086.78;105754;1273;24282;-55
2022/08/23 03:16:34;;;;;;;13.60;5.50;;;;;;;16.96;100.00;100091.23;105740;1273;22575;-56
2022/08/23 03:19:06;;;;;;;9.90;4.80;;;;;;;16.96;100.00;100081.59;105690;1273;24439;-57
2022/08/23 03:21:38;;;;;;;9.10;4.10;;;;;;;16.97;100.00;100085.84;105762;1272;22705;-56
2022/08/23 03:24:10;;;;;;;10.80;4.00;;;;;;;16.95;100.00;100082.98;105665;1273;22549;-55
2022/08/23 03:26:44;;;;;;;9.10;3.20;;;;;;;16.95;100.00;100082.06;105682;1273;25314;-55
2022/08/23 03:29:17;;;;;;;9.00;2.90;;;;;;;16.95;100.00;100081.29;105724;1273;25272;-57
2022/08/23 03:31:50;;;;;;;9.20;3.50;;;;;;;16.94;100.00;100081.87;105672;1273;22562;-57
2022/08/23 03:34:22;;;;;;;8.00;3.30;;;;;;;16.93;100.00;100077.73;105774;1273;22553;-57
2022/08/23 03:36:53;;;;;;;10.20;3.70;;;;;;;16.91;100.00;100073.75;105572;1273;22600;-57
2022/08/23 03:39:25;;;;;;;8.10;3.20;;;;;;;16.89;100.00;100077.30;105710;1273;24233;-54
2022/08/23 03:41:57;;;;;;;9.30;3.20;;;;;;;16.88;100.00;100076.58;105721;1273;22572;-54
2022/08/23 03:44:29;;;;;;;8.30;3.00;;;;;;;16.85;100.00;100083.95;105785;1273;25454;-58
2022/08/23 03:47:00;;;;;;;9.70;3.10;;;;;;;16.85;100.00;100078.92;105711;1273;25454;-57
2022/08/23 03:49:32;;;;;;;9.00;3.50;;;;;;;16.84;100.00;100081.65;105788;1273;22664;-54
2022/08/23 03:52:05;;;;;;;9.00;2.90;;;;;;;16.83;100.00;100076.84;105726;1273;22556;-55
2022/08/23 03:54:39;;;;;;;7.90;3.10;;;;;;;16.82;100.00;100076.79;105773;1273;23470;-53
2022/08/23 03:57:12;;;;;;;7.20;2.60;;;;;;;16.80;100.00;100071.48;105772;1273;24342;-56
2022/08/23 03:59:44;;;;;;;10.60;3.80;;;;;;;16.76;100.00;100071.11;105662;1272;22688;-56
2022/08/23 04:02:16;;;;;;;9.30;3.10;;;;;;;16.73;100.00;100076.73;105612;1273;22553;-56
2022/08/23 04:04:48;;;;;;;7.60;3.00;;;;;;;16.72;100.00;100078.98;105702;1273;22699;-57
2022/08/23 04:07:22;;;;;;;10.50;3.20;;;;;;;16.71;100.00;100072.49;106483;1273;22528;-57
2022/08/23 04:09:54;;;;;;;8.40;3.30;;;;;;;16.71;100.00;100072.64;106328;1273;22551;-57
2022/08/23 04:12:26;;;;;;;10.10;3.20;;;;;;;16.71;100.00;100074.39;106315;1273;25346;-57
2022/08/23 04:14:58;;;;;;;7.80;2.80;;;;;;;16.71;100.00;100073.20;106276;1273;22492;-56
2022/08/23 04:17:29;;;;;;;10.00;3.90;;;;;;;16.71;100.00;100072.90;106456;1273;22566;-57
2022/08/23 04:20:02;;;;;;;10.00;3.10;;;;;;;16.70;100.00;100069.38;106430;1273;24349;-55
2022/08/23 04:22:35;;;;;;;11.10;3.50;;;;;;;16.69;100.00;100076.91;106290;1273;22702;-56
2022/08/23 04:25:08;;;;;;;12.00;4.20;;;;;;;16.71;100.00;100087.66;106328;1273;24230;-55
2022/08/23 04:27:40;;;;;;;10.00;4.10;;;;;;;16.72;100.00;100097.89;106414;1273;25356;-56
2022/08/23 04:30:14;;;;;;;9.40;3.60;;;;;;;16.73;100.00;100094.45;106366;1273;22487;-57
2022/08/23 04:32:47;;;;;;;15.10;4.50;;;;;;;16.74;100.00;100089.02;106414;1273;25913;-56
2022/08/23 04:35:19;;;;;;;10.50;4.70;;;;;;;16.74;100.00;100097.33;106467;1273;22534;-61
2022/08/23 04:37:51;;;;;;;12.90;4.60;;;;;;;16.75;100.00;100104.23;106569;1273;25346;-60
2022/08/23 04:43:12;;;;;;;10.20;4.60;;;;;;;16.76;100.00;100116.38;106133;1272;24526;-59
2022/08/23 04:45:45;;;;;;;12.70;4.40;;;;;;;16.75;100.00;100115.15;106245;1273;25239;-58
2022/08/23 04:48:17;;;;;;;10.40;4.90;;;;;;;16.77;100.00;100116.17;106230;1273;24303;-59
2022/08/23 04:50:50;;;;;;;9.60;4.00;;;;;;;16.77;100.00;100120.21;106217;1273;22602;-58
2022/08/23 04:53:22;;;;;;;10.80;4.20;;;;;;;16.79;100.00;100119.07;106273;1273;22693;-59
2022/08/23 04:55:54;;;;;;;11.40;4.20;;;;;;;16.80;100.00;100123.67;106422;1272;22543;-58
2022/08/23 04:58:26;;;;;;;11.50;4.20;;;;;;;16.80;100.00;100122.08;106777;1273;24321;-58
2022/08/23 05:01:01;;;;;;;11.40;3.80;;;;;;;16.80;100.00;100124.04;106393;1273;24208;-58
2022/08/23 05:03:33;;;;;;;8.00;3.40;;;;;;;16.81;100.00;100129.30;106315;1273;26113;-58
2022/08/23 05:06:08;;;;;;;9.00;4.00;;;;;;;16.81;100.00;100129.35;106154;1273;22534;-59
2022/08/23 05:08:42;;;;;;;8.70;3.40;;;;;;;16.81;100.00;100138.42;106202;1273;22578;-57
2022/08/23 05:11:13;;;;;;;10.30;3.50;;;;;;;16.82;100.00;100135.59;106225;1273;22725;-57
2022/08/23 05:13:45;;;;;;;7.50;2.50;;;;;;;16.82;100.00;100130.88;108966;1271;24256;-58
2022/08/23 05:16:17;;;;;;;6.10;2.60;;;;;;;16.82;100.00;100131.75;106378;1273;22550;-58
2022/08/23 05:18:49;;;;;;;7.00;2.90;;;;;;;16.82;100.00;100130.37;106314;1273;22619;-58
2022/08/23 05:21:23;;;;;;;6.50;3.10;;;;;;;16.81;100.00;100128.27;106167;1271;24204;-58
2022/08/23 05:23:55;;;;;;;7.60;3.00;;;;;;;16.82;100.00;100137.80;106159;1273;26470;-58
2022/08/23 05:26:27;;;;;;;11.90;2.80;;;;;;;16.82;100.00;100139.80;106176;1272;22546;-57
2022/08/23 05:28:58;;;;;;;11.60;3.40;;;;;;;16.82;100.00;100144.56;106231;1273;25468;-58
2022/08/23 05:31:30;;;;;;;10.90;3.90;;;;;;;16.82;100.00;100149.69;106362;1273;22545;-57
2022/08/23 05:34:03;;;;;;;8.70;3.60;;;;;;;16.83;100.00;100152.76;106166;1273;22546;-58
2022/08/23 05:36:36;;;;;;;9.70;4.00;;;;;;;16.83;100.00;100150.05;106197;1273;22531;-57
2022/08/23 05:39:09;;;;;;;8.90;3.50;;;;;;;16.83;100.00;100154.04;106262;1273;24259;-57
2022/08/23 05:41:41;;;;;;;10.40;4.80;;;;;;;16.84;100.00;100154.92;106058;1273;23098;-56
2022/08/23 05:44:14;;;;;;;11.20;4.70;;;;;;;16.82;100.00;100148.00;106238;1273;22596;-58
2022/08/23 05:46:45;;;;;;;11.60;4.40;;;;;;;16.82;100.00;100142.92;106149;1273;24326;-58
2022/08/23 05:49:17;;;;;;;13.00;4.70;;;;;;;16.81;100.00;100144.78;106348;1273;24335;-57
2022/08/23 05:51:50;;;;;;;10.80;5.10;;;;;;;16.81;100.00;100144.06;106329;1273;25550;-58
2022/08/23 05:54:22;;;;;;;11.30;5.30;;;;;;;16.81;100.00;100145.86;106091;1273;22644;-58
2022/08/23 05:56:59;;;;;;;12.30;5.40;;;;;;;16.81;100.00;100140.94;106228;1273;23936;-56
2022/08/23 05:59:33;;;;;;;12.50;6.30;;;;;;;16.83;100.00;100145.08;106047;1273;25351;-57
2022/08/23 06:02:06;;;;;;;11.80;5.50;;;;;;;16.83;100.00;100147.02;106243;1273;22556;-56
2022/08/23 06:04:38;;;;;;;15.10;6.20;;;;;;;16.85;100.00;100149.88;106397;1273;23486;-57
2022/08/23 06:07:11;;;;;;;12.30;5.90;;;;;;;16.86;100.00;100153.39;106116;1271;23033;-56
2022/08/23 06:09:42;;;;;;;12.50;6.00;;;;;;;16.90;100.00;100153.22;106158;1273;22714;-56
2022/08/23 06:12:14;;;;;;;14.20;7.80;;;;;;;16.92;100.00;100154.79;106311;1272;22569;-57
2022/08/23 06:14:45;;;;;;;13.50;6.00;;;;;;;16.94;100.00;100159.65;106190;1273;22724;-55
2022/08/23 06:17:18;;;;;;;17.20;7.60;;;;;;;16.96;100.00;100164.82;106309;1273;22694;-56
2022/08/23 06:19:49;;;;;;;14.20;6.50;;;;;;;16.98;100.00;100173.01;106317;1273;26489;-56
2022/08/23 06:22:22;;;;;;;16.60;7.00;;;;;;;17.02;100.00;100180.09;106284;1272;25237;-57
2022/08/23 06:24:53;;;;;;;17.20;7.40;;;;;;;17.06;100.00;100185.35;106094;1273;22532;-56
2022/08/23 06:27:25;;;;;;;14.00;6.60;;;;;;;17.08;100.00;100187.38;106079;1271;22533;-56
2022/08/23 06:29:57;;;;;;;15.50;6.80;;;;;;;17.09;100.00;100190.59;106196;1273;22550;-56
2022/08/23 06:32:29;;;;;;;20.60;7.90;;;;;;;17.10;100.00;100187.52;106316;1273;22541;-56
2022/08/23 06:35:07;;;;;;;20.10;9.40;;;;;;;17.12;100.00;100188.06;106378;1273;22647;-57
2022/08/23 06:37:39;;;;;;;17.20;8.40;;;;;;;17.15;100.00;100191.33;106128;1273;22594;-56
2022/08/23 06:40:12;;;;;;;15.90;7.60;;;;;;;17.16;100.00;100194.23;106353;1273;25367;-56
2022/08/23 06:42:44;;;;;;;22.70;9.40;;;;;;;17.17;100.00;100192.84;106132;1273;22741;-56
2022/08/23 06:45:16;;;;;;;16.60;8.20;;;;;;;17.18;100.00;100195.80;106134;1273;25485;-56
2022/08/23 06:47:47;;;;;;;16.60;7.90;;;;;;;17.19;100.00;100194.06;106109;1273;25403;-56
2022/08/23 06:50:19;;;;;;;17.80;8.10;;;;;;;17.22;100.00;100192.13;106113;1272;22551;-57
2022/08/23 06:52:52;;;;;;;18.80;8.10;;;;;;;17.24;100.00;100192.00;106230;1273;22553;-56
2022/08/23 06:55:24;;;;;;;19.70;9.30;;;;;;;17.27;100.00;100186.13;106110;1273;22673;-56
2022/08/23 06:57:57;;;;;;;27.60;11.50;;;;;;;17.28;100.00;100188.58;106176;1273;25006;-56
2022/08/23 07:00:36;;;;;;;16.70;8.30;;;;;;;17.34;100.00;100190.73;106106;1273;22550;-55
2022/08/23 07:03:11;;;;;;;21.70;9.70;;;;;;;17.36;100.00;100191.90;105947;1273;22564;-55
2022/08/23 07:05:46;;;;;;;19.30;9.00;;;;;;;17.41;100.00;100192.36;105941;1273;25252;-55
2022/08/23 07:08:19;;;;;;;18.40;9.20;;;;;;;17.45;100.00;100197.05;106007;1273;25397;-55
2022/08/23 07:10:53;;;;;;;21.20;10.40;;;;;;;17.50;100.00;100201.39;106090;1273;22954;-55
2022/08/23 07:13:25;;;;;;;21.00;8.70;;;;;;;17.53;100.00;100203.98;106498;1273;25293;-54
2022/08/23 07:16:02;;;;;;;23.20;9.10;;;;;;;17.55;100.00;100203.14;105726;1272;22541;-56
2022/08/23 07:18:35;;;;;;;19.30;9.40;;;;;;;17.55;100.00;100200.62;105889;1273;22532;-56
2022/08/23 07:21:08;;;;;;;25.20;9.20;;;;;;;17.54;100.00;100195.48;106045;1273;26479;-56
2022/08/23 07:23:42;;;;;;;18.40;8.70;;;;;;;17.56;100.00;100200.45;106038;1273;22525;-55
2022/08/23 07:26:17;;;;;;;19.60;8.80;;;;;;;17.60;100.00;100206.27;106173;1272;22474;-54
2022/08/23 07:28:50;;;;;;;21.70;10.20;;;;;;;17.63;100.00;100207.81;106044;1273;22529;-56
2022/08/23 07:31:26;;;;;;;18.50;8.60;;;;;;;17.67;100.00;100208.41;106108;1273;26648;-53
2022/08/23 07:33:59;;;;;;;19.30;8.30;;;;;;;17.71;100.00;100208.83;106062;1273;25393;-55
2022/08/23 07:36:41;;;;;;;19.30;8.80;;;;;;;17.74;100.00;100214.13;106236;1273;22548;-54
2022/08/23 07:43:08;;;;;;;20.00;9.00;;;;;;;17.75;100.00;100215.26;105728;1273;22547;-52
2022/08/23 07:45:44;;;;;;;17.20;8.70;;;;;;;17.74;100.00;100213.20;105814;1273;24930;-54
2022/08/23 07:48:17;;;;;;;17.20;8.50;;;;;;;17.76;100.00;100218.02;105605;1273;24416;-55
2022/08/23 07:50:56;;;;;;;17.20;8.50;;;;;;;17.78;100.00;100219.70;105762;1273;25245;-56
2022/08/23 07:53:30;;;;;;;21.10;9.30;;;;;;;17.80;100.00;100217.71;105897;1273;24278;-54
2022/08/23 07:56:07;;;;;;;17.30;9.00;;;;;;;17.84;100.00;100215.15;106032;1273;22814;-55
2022/08/23 07:58:39;;;;;;;17.50;8.40;;;;;;;17.87;100.00;100211.38;105953;1273;26579;-54
2022/08/23 08:01:15;;;;;;;17.40;8.00;;;;;;;17.88;100.00;100208.86;106050;1273;26506;-54
2022/08/23 08:03:52;;;;;;;20.90;10.00;;;;;;;17.93;100.00;100212.09;106070;1273;25387;-55
2022/08/23 08:06:28;;;;;;;25.10;11.20;;;;;;;18.00;100.00;100219.96;106294;1271;22707;-56
2022/08/23 08:09:01;;;;;;;18.60;8.90;;;;;;;18.06;100.00;100228.67;106063;1273;22646;-56
2022/08/23 08:11:37;;;;;;;16.90;8.00;;;;;;;18.10;100.00;100228.48;105968;1273;22613;-56
2022/08/23 08:14:11;;;;;;;19.00;8.50;;;;;;;18.12;100.00;100231.47;105548;1272;26496;-58
2022/08/23 08:16:45;;;;;;;15.80;8.00;;;;;;;18.14;100.00;100232.64;105818;1273;25392;-55
2022/08/23 08:19:18;;;;;;;19.00;8.10;;;;;;;18.17;100.00;100228.14;105621;1273;22566;-54
2022/08/23 08:21:50;;;;;;;16.50;8.00;;;;;;;18.21;100.00;100227.15;105658;1273;23028;-58
2022/08/23 08:24:22;;;;;;;17.90;9.00;;;;;;;18.27;100.00;100221.42;105859;1273;23954;-55
2022/08/23 08:26:53;;;;;;;17.30;9.10;;;;;;;18.35;100.00;100218.09;105643;1273;24420;-52
2022/08/23 08:29:25;;;;;;;17.30;8.60;;;;;;;18.43;100.00;100217.06;105877;1273;22531;-54
2022/08/23 08:31:57;;;;;;;16.50;8.40;;;;;;;18.52;100.00;100222.05;105857;1273;24260;-54
2022/08/23 08:34:29;;;;;;;18.20;8.90;;;;;;;18.62;100.00;100222.85;105754;1272;22605;-56
2022/08/23 08:37:00;;;;;;;16.20;8.40;;;;;;;18.68;100.00;100225.65;105703;1273;23056;-56
2022/08/23 08:39:33;;;;;;;16.00;8.60;;;;;;;18.70;100.00;100235.02;105880;1273;22570;-55
2022/08/23 08:42:32;;;;;;;18.20;8.20;;;;;;;18.73;100.00;100240.56;105624;1273;24258;-53
2022/08/23 08:45:09;;;;;;;15.20;7.00;;;;;;;18.79;100.00;100247.70;105729;1273;24428;-53
2022/08/23 08:47:48;;;;;;;13.30;6.40;;;;;;;18.81;100.00;100246.48;105827;1272;22699;-55
2022/08/23 08:50:25;;;;;;;15.30;6.90;;;;;;;18.80;100.00;100246.18;105838;1273;22699;-52
2022/08/23 08:53:04;;;;;;;16.00;7.30;;;;;;;18.80;100.00;100244.19;105653;1273;22615;-56
2022/08/23 08:55:41;;;;;;;14.00;7.30;;;;;;;18.85;100.00;100256.03;105682;1273;24345;-55
2022/08/23 08:58:19;;;;;;;15.30;5.80;;;;;;;18.92;100.00;100262.94;105957;1273;22546;-52
2022/08/23 09:00:51;;;;;;;15.90;6.00;;;;;;;18.99;100.00;100271.36;105803;1273;24264;-52
2022/08/23 09:03:24;;;;;;;12.60;5.20;;;;;;;19.05;100.00;100275.04;105899;1273;23070;-55
2022/08/23 09:06:02;;;;;;;13.50;4.80;;;;;;;19.09;100.00;100271.23;105991;1273;22656;-51
2022/08/23 09:08:55;;;;;;;12.40;5.20;;;;;;;19.16;100.00;100266.48;106251;1273;24238;-54
2022/08/23 09:11:41;;;;;;;10.60;4.50;;;;;;;19.23;100.00;100266.84;105795;1273;25320;-52
2022/08/23 09:14:38;;;;;;;10.60;4.10;;;;;;;19.27;100.00;100269.02;105944;1273;24222;-52
2022/08/23 09:17:18;;;;;;;10.70;4.00;;;;;;;19.33;100.00;100272.66;105859;1273;22534;-54
2022/08/23 09:19:55;;;;;;;12.70;4.70;;;;;;;19.39;100.00;100276.96;105861;1273;24224;-54
2022/08/23 09:22:34;;;;;;;12.20;4.80;;;;;;;19.46;100.00;100276.21;105883;1271;22550;-51
2022/08/23 09:25:07;;;;;;;10.90;4.70;;;;;;;19.50;100.00;100272.65;105680;1273;25360;-57
2022/08/23 09:27:40;;;;;;;9.00;4.00;;;;;;;19.49;100.00;100268.68;105690;1273;22547;-54
2022/08/23 09:30:15;;;;;;;11.40;5.30;;;;;;;19.50;100.00;100268.69;106045;1273;22555;-55
2022/08/23 09:32:51;;;;;;;21.90;6.00;;;;;;;19.48;100.00;100273.23;105755;1271;23204;-51
2022/08/23 09:35:25;;;;;;;11.00;5.30;;;;;;;19.48;100.00;100274.48;105765;1273;25494;-57
2022/08/23 09:38:06;;;;;;;12.40;4.90;;;;;;;19.48;100.00;100273.23;106155;1272;22708;-54
2022/08/23 09:40:44;;;;;;;16.70;6.00;;;;;;;19.48;100.00;100275.92;105845;1273;25427;-54
2022/08/23 09:43:20;;;;;;;19.30;4.50;;;;;;;19.50;100.00;100271.83;105605;1273;23453;-57
2022/08/23 09:46:03;;;;;;;13.30;3.90;;;;;;;19.50;100.00;100268.95;105915;1273;22728;-57
2022/08/23 09:48:42;;;;;;;12.80;6.30;;;;;;;19.52;100.00;100276.53;105863;1273;25253;-57
2022/08/23 09:51:24;;;;;;;12.40;4.70;;;;;;;19.49;100.00;100276.73;105782;1273;24305;-57
2022/08/23 09:54:07;;;;;;;14.20;5.90;;;;;;;19.49;100.00;100281.79;105639;1272;24310;-55
2022/08/23 09:56:44;;;;;;;12.00;5.20;;;;;;;19.44;100.00;100278.45;105692;1273;22692;-55
2022/08/23 09:59:40;;;;;;;13.70;6.00;;;;;;;19.37;100.00;100276.98;106073;1273;22670;-53
2022/08/23 10:02:24;;;;;;;11.60;4.60;;;;;;;19.34;100.00;100280.33;105799;1273;22561;-57
2022/08/23 10:05:02;;;;;;;12.20;4.80;;;;;;;19.36;100.00;100285.08;105759;1273;22545;-55
2022/08/23 10:07:38;;;;;;;9.00;3.70;;;;;;;19.39;100.00;100284.98;105776;1273;24308;-52
2022/08/23 10:10:29;;;;;;;6.70;3.30;;;;;;;19.47;100.00;100285.10;106001;1272;22531;-54
2022/08/23 10:13:02;;;;;;;8.70;3.80;;;;;;;19.56;100.00;100292.48;105218;1273;2002373;-55
2022/08/23 10:15:48;;;;;;;7.40;3.20;;;;;;;19.64;100.00;100289.24;106212;1271;22540;-55
2022/08/23 10:18:27;;;;;;;10.60;3.70;;;;;;;19.72;100.00;100294.11;105792;1273;24205;-52
2022/08/23 10:21:05;;;;;;;11.00;3.70;;;;;;;19.77;100.00;100294.69;105735;1273;22616;-57
2022/08/23 10:23:50;;;;;;;7.70;2.60;;;;;;;19.81;100.00;100296.27;105752;1273;22563;-55
2022/08/23 10:26:27;;;;;;;9.20;3.00;;;;;;;19.85;100.00;100295.83;105782;1273;22570;-51
2022/08/23 10:32:02;;;;;;;6.70;2.10;;;;;;;19.89;100.00;100290.55;105735;1273;26415;-55
2022/08/23 10:34:54;;;;;;;6.50;2.20;;;;;;;19.88;100.00;100286.19;105838;1273;25684;-52
2022/08/23 10:37:54;;;;;;;6.30;1.90;;;;;;;19.94;100.00;100279.96;105808;1273;22626;-55
2022/08/23 10:40:33;;;;;;;7.30;2.80;;;;;;;20.01;100.00;100289.30;105825;1273;22718;-53
2022/08/23 10:43:14;;;;;;;6.80;2.40;;;;;;;20.00;100.00;100294.15;105993;1273;22535;-55
2022/08/23 10:45:49;;;;;;;6.90;2.70;;;;;;;19.98;100.00;100300.73;105869;1272;25452;-54
2022/08/23 10:48:27;;;;;;;11.60;2.60;;;;;;;19.94;100.00;100300.35;105688;1273;24428;-53
2022/08/23 10:51:02;;;;;;;8.20;2.50;;;;;;;19.93;100.00;100301.55;105760;1273;22550;-54
2022/08/23 10:53:44;;;;;;;7.40;2.70;;;;;;;19.93;100.00;100302.17;105902;1273;25880;-53
2022/08/23 10:56:19;;;;;;;7.20;2.50;;;;;;;19.95;100.00;100304.87;105648;1273;25312;-54
2022/08/23 10:58:55;;;;;;;6.60;2.50;;;;;;;19.96;100.00;100305.42;105901;1273;22563;-56
2022/08/23 11:01:36;;;;;;;6.70;2.80;;;;;;;19.98;100.00;100307.48;106152;1273;22547;-54
2022/08/23 11:04:20;;;;;;;9.20;3.70;;;;;;;19.99;100.00;100313.95;105876;1273;25434;-53
2022/08/23 11:06:56;;;;;;;11.00;3.10;;;;;;;19.93;100.00;100306.85;106009;1273;25147;-54
2022/08/23 11:09:57;;;;;;;7.00;2.90;;;;;;;19.87;100.00;100302.49;106054;1273;25503;-57
2022/08/23 11:12:33;;;;;;;9.20;3.30;;;;;;;19.85;100.00;100300.83;105896;1273;22537;-51
2022/08/23 11:15:25;;;;;;;8.00;3.10;;;;;;;19.86;100.00;100305.02;105854;1273;22528;-54
2022/08/23 11:18:01;;;;;;;10.10;4.00;;;;;;;19.87;100.00;100309.96;105614;1273;22537;-53
2022/08/23 11:21:06;;;;;;;9.80;4.30;;;;;;;19.86;100.00;100311.52;105866;1273;25330;-54
2022/08/23 11:23:48;;;;;;;9.80;3.60;;;;;;;19.86;100.00;100306.62;105884;1272;24435;-54
2022/08/23 11:27:05;;;;;;;11.70;4.50;;;;;;;19.87;100.00;100300.64;105542;1273;22548;-54
2022/08/23 11:29:39;;;;;;;9.70;3.60;;;;;;;19.90;100.00;100302.27;105748;1273;22532;-54
2022/08/23 11:32:41;;;;;;;12.00;4.90;;;;;;;19.95;100.00;100297.19;105812;1273;22538;-55
2022/08/23 11:35:37;;;;;;;11.90;4.10;;;;;;;19.96;100.00;100293.98;105497;1273;23057;-55
2022/08/23 11:38:09;;;;;;;10.20;4.20;;;;;;;20.00;100.00;100292.61;107601;1272;23002;-52
2022/08/23 11:41:06;;;;;;;13.40;4.10;;;;;;;20.01;100.00;100297.04;105881;1273;22535;-55
2022/08/23 11:43:41;;;;;;;8.70;4.10;;;;;;;19.99;100.00;100296.96;105721;1273;22723;-55
2022/08/23 11:46:35;;;;;;;9.20;3.80;;;;;;;19.99;100.00;100298.71;105722;1273;26501;-53
2022/08/23 11:49:40;;;;;;;10.60;3.90;;;;;;;19.99;100.00;100302.41;105996;1273;22541;-54
2022/08/23 11:52:28;;;;;;;9.00;4.00;;;;;;;19.99;100.00;100304.11;105699;1274;23735;-53
2022/08/23 11:55:17;;;;;;;8.70;3.40;;;;;;;20.00;100.00;100304.05;105662;1275;23220;-55